sensor_id;sensor_type;location;lat;lon;timestamp;P1;durP1;ratioP1;P2;durP2;ratioP2
22826;SDS011;11580;52.562;13.418;2024-01-06T00:01:25;27.10;;;21.87;;
22826;SDS011;11580;52.562;13.418;2024-01-06T00:03:53;26.13;;;22.70;;
22826;SDS011;11580;52.562;13.418;2024-01-06T00:06:20;26.07;;;20.70;;
22826;SDS011;11580;52.562;13.418;2024-01-06T00:08:47;24.53;;;20.73;;
22826;SDS011;11580;52.562;13.418;2024-01-06T00:11:18;27.23;;;21.00;;
22826;SDS011;11580;52.562;13.418;2024-01-06T00:13:46;26.90;;;21.27;;
22826;SDS011;11580;52.562;13.418;2024-01-06T00:16:13;26.00;;;21.57;;
22826;SDS011;11580;52.562;13.418;2024-01-06T00:18:45;24.90;;;20.63;;
22826;SDS011;11580;52.562;13.418;2024-01-06T00:21:12;27.20;;;21.57;;
22826;SDS011;11580;52.562;13.418;2024-01-06T00:23:39;26.33;;;22.60;;
22826;SDS011;11580;52.562;13.418;2024-01-06T00:26:07;27.63;;;22.03;;
22826;SDS011;11580;52.562;13.418;2024-01-06T00:28:37;25.70;;;21.53;;
22826;SDS011;11580;52.562;13.418;2024-01-06T00:31:05;25.70;;;20.47;;
22826;SDS011;11580;52.562;13.418;2024-01-06T00:33:31;25.47;;;21.83;;
22826;SDS011;11580;52.562;13.418;2024-01-06T00:36:00;29.73;;;22.80;;
22826;SDS011;11580;52.562;13.418;2024-01-06T00:38:27;23.87;;;20.13;;
22826;SDS011;11580;52.562;13.418;2024-01-06T00:40:54;30.20;;;21.57;;
22826;SDS011;11580;52.562;13.418;2024-01-06T00:43:21;27.60;;;22.53;;
22826;SDS011;11580;52.562;13.418;2024-01-06T00:45:48;27.93;;;22.13;;
22826;SDS011;11580;52.562;13.418;2024-01-06T00:48:16;28.77;;;24.10;;
22826;SDS011;11580;52.562;13.418;2024-01-06T00:50:43;28.60;;;20.50;;
22826;SDS011;11580;52.562;13.418;2024-01-06T00:53:12;25.20;;;20.83;;
22826;SDS011;11580;52.562;13.418;2024-01-06T00:55:40;24.47;;;21.00;;
22826;SDS011;11580;52.562;13.418;2024-01-06T00:58:07;31.80;;;22.13;;
22826;SDS011;11580;52.562;13.418;2024-01-06T01:00:34;26.73;;;20.23;;
22826;SDS011;11580;52.562;13.418;2024-01-06T01:03:02;25.73;;;19.23;;
22826;SDS011;11580;52.562;13.418;2024-01-06T01:05:29;31.10;;;21.93;;
22826;SDS011;11580;52.562;13.418;2024-01-06T01:07:56;24.63;;;20.37;;
22826;SDS011;11580;52.562;13.418;2024-01-06T01:10:25;26.23;;;21.30;;
22826;SDS011;11580;52.562;13.418;2024-01-06T01:12:52;28.27;;;21.83;;
22826;SDS011;11580;52.562;13.418;2024-01-06T01:15:19;28.83;;;21.27;;
22826;SDS011;11580;52.562;13.418;2024-01-06T01:17:46;28.77;;;21.47;;
22826;SDS011;11580;52.562;13.418;2024-01-06T01:20:13;29.30;;;22.03;;
22826;SDS011;11580;52.562;13.418;2024-01-06T01:22:41;26.57;;;20.87;;
22826;SDS011;11580;52.562;13.418;2024-01-06T01:25:08;23.20;;;19.53;;
22826;SDS011;11580;52.562;13.418;2024-01-06T01:27:38;24.43;;;19.13;;
22826;SDS011;11580;52.562;13.418;2024-01-06T01:30:06;25.10;;;20.43;;
22826;SDS011;11580;52.562;13.418;2024-01-06T01:32:34;27.00;;;21.83;;
22826;SDS011;11580;52.562;13.418;2024-01-06T01:35:01;23.10;;;19.97;;
22826;SDS011;11580;52.562;13.418;2024-01-06T01:37:29;24.97;;;20.07;;
22826;SDS011;11580;52.562;13.418;2024-01-06T01:39:56;25.73;;;20.83;;
22826;SDS011;11580;52.562;13.418;2024-01-06T01:42:24;27.90;;;19.83;;
22826;SDS011;11580;52.562;13.418;2024-01-06T01:44:52;26.70;;;21.00;;
22826;SDS011;11580;52.562;13.418;2024-01-06T01:47:19;24.07;;;20.00;;
22826;SDS011;11580;52.562;13.418;2024-01-06T01:49:46;25.23;;;19.67;;
22826;SDS011;11580;52.562;13.418;2024-01-06T01:52:14;27.23;;;20.20;;
22826;SDS011;11580;52.562;13.418;2024-01-06T01:54:42;21.67;;;19.23;;
22826;SDS011;11580;52.562;13.418;2024-01-06T01:57:12;24.20;;;20.03;;
22826;SDS011;11580;52.562;13.418;2024-01-06T01:59:41;23.70;;;19.23;;
22826;SDS011;11580;52.562;13.418;2024-01-06T02:02:10;24.47;;;19.30;;
22826;SDS011;11580;52.562;13.418;2024-01-06T02:04:46;26.50;;;20.43;;
22826;SDS011;11580;52.562;13.418;2024-01-06T02:07:14;24.77;;;20.37;;
22826;SDS011;11580;52.562;13.418;2024-01-06T02:09:41;26.27;;;20.40;;
22826;SDS011;11580;52.562;13.418;2024-01-06T02:12:08;29.00;;;21.40;;
22826;SDS011;11580;52.562;13.418;2024-01-06T02:14:35;26.10;;;20.40;;
22826;SDS011;11580;52.562;13.418;2024-01-06T02:17:03;25.90;;;19.30;;
22826;SDS011;11580;52.562;13.418;2024-01-06T02:19:31;23.63;;;19.70;;
22826;SDS011;11580;52.562;13.418;2024-01-06T02:22:00;21.50;;;18.33;;
22826;SDS011;11580;52.562;13.418;2024-01-06T02:24:27;25.40;;;20.10;;
22826;SDS011;11580;52.562;13.418;2024-01-06T02:26:54;26.07;;;21.67;;
22826;SDS011;11580;52.562;13.418;2024-01-06T02:29:21;26.20;;;19.63;;
22826;SDS011;11580;52.562;13.418;2024-01-06T02:31:48;23.87;;;19.00;;
22826;SDS011;11580;52.562;13.418;2024-01-06T02:34:15;27.00;;;21.53;;
22826;SDS011;11580;52.562;13.418;2024-01-06T02:36:43;31.30;;;20.70;;
22826;SDS011;11580;52.562;13.418;2024-01-06T02:39:11;24.70;;;19.73;;
22826;SDS011;11580;52.562;13.418;2024-01-06T02:41:38;25.40;;;19.73;;
22826;SDS011;11580;52.562;13.418;2024-01-06T02:44:06;27.47;;;20.80;;
22826;SDS011;11580;52.562;13.418;2024-01-06T02:46:33;21.50;;;18.83;;
22826;SDS011;11580;52.562;13.418;2024-01-06T02:49:01;23.87;;;20.00;;
22826;SDS011;11580;52.562;13.418;2024-01-06T02:51:28;23.10;;;19.20;;
22826;SDS011;11580;52.562;13.418;2024-01-06T02:53:55;24.07;;;19.10;;
22826;SDS011;11580;52.562;13.418;2024-01-06T02:56:23;25.57;;;20.30;;
22826;SDS011;11580;52.562;13.418;2024-01-06T02:58:50;23.47;;;19.13;;
22826;SDS011;11580;52.562;13.418;2024-01-06T03:01:18;22.67;;;19.47;;
22826;SDS011;11580;52.562;13.418;2024-01-06T03:03:45;26.50;;;20.10;;
22826;SDS011;11580;52.562;13.418;2024-01-06T03:06:12;23.80;;;19.47;;
22826;SDS011;11580;52.562;13.418;2024-01-06T03:08:39;23.43;;;20.37;;
22826;SDS011;11580;52.562;13.418;2024-01-06T03:11:07;21.60;;;19.30;;
22826;SDS011;11580;52.562;13.418;2024-01-06T03:13:35;27.80;;;20.80;;
22826;SDS011;11580;52.562;13.418;2024-01-06T03:16:03;29.30;;;21.73;;
22826;SDS011;11580;52.562;13.418;2024-01-06T03:18:31;25.10;;;20.30;;
22826;SDS011;11580;52.562;13.418;2024-01-06T03:20:58;24.70;;;20.53;;
22826;SDS011;11580;52.562;13.418;2024-01-06T03:23:25;27.27;;;21.33;;
22826;SDS011;11580;52.562;13.418;2024-01-06T03:25:52;29.40;;;21.83;;
22826;SDS011;11580;52.562;13.418;2024-01-06T03:28:20;28.10;;;20.93;;
22826;SDS011;11580;52.562;13.418;2024-01-06T03:30:48;22.00;;;18.50;;
22826;SDS011;11580;52.562;13.418;2024-01-06T03:33:15;28.87;;;23.23;;
22826;SDS011;11580;52.562;13.418;2024-01-06T03:35:42;24.10;;;19.93;;
22826;SDS011;11580;52.562;13.418;2024-01-06T03:38:10;25.73;;;20.30;;
22826;SDS011;11580;52.562;13.418;2024-01-06T03:40:37;28.00;;;21.43;;
22826;SDS011;11580;52.562;13.418;2024-01-06T03:43:04;25.80;;;20.60;;
22826;SDS011;11580;52.562;13.418;2024-01-06T03:45:31;27.73;;;21.67;;
22826;SDS011;11580;52.562;13.418;2024-01-06T03:48:00;28.90;;;19.93;;
22826;SDS011;11580;52.562;13.418;2024-01-06T03:50:27;24.47;;;19.10;;
22826;SDS011;11580;52.562;13.418;2024-01-06T03:52:54;24.53;;;19.63;;
22826;SDS011;11580;52.562;13.418;2024-01-06T03:55:22;26.50;;;20.70;;
22826;SDS011;11580;52.562;13.418;2024-01-06T03:57:49;24.70;;;20.23;;
22826;SDS011;11580;52.562;13.418;2024-01-06T04:00:16;25.07;;;20.57;;
22826;SDS011;11580;52.562;13.418;2024-01-06T04:02:44;26.30;;;20.17;;
22826;SDS011;11580;52.562;13.418;2024-01-06T04:05:12;26.10;;;21.57;;
22826;SDS011;11580;52.562;13.418;2024-01-06T04:07:40;28.33;;;20.33;;
22826;SDS011;11580;52.562;13.418;2024-01-06T04:10:07;26.43;;;21.13;;
22826;SDS011;11580;52.562;13.418;2024-01-06T04:12:35;26.13;;;21.17;;
22826;SDS011;11580;52.562;13.418;2024-01-06T04:15:02;27.20;;;20.57;;
22826;SDS011;11580;52.562;13.418;2024-01-06T04:17:30;28.83;;;19.50;;
22826;SDS011;11580;52.562;13.418;2024-01-06T04:19:57;25.60;;;18.80;;
22826;SDS011;11580;52.562;13.418;2024-01-06T04:22:26;23.17;;;19.40;;
22826;SDS011;11580;52.562;13.418;2024-01-06T04:24:53;25.90;;;19.77;;
22826;SDS011;11580;52.562;13.418;2024-01-06T04:27:20;22.50;;;19.50;;
22826;SDS011;11580;52.562;13.418;2024-01-06T04:29:47;28.67;;;20.60;;
22826;SDS011;11580;52.562;13.418;2024-01-06T04:32:18;27.40;;;21.50;;
22826;SDS011;11580;52.562;13.418;2024-01-06T04:34:45;27.17;;;19.53;;
22826;SDS011;11580;52.562;13.418;2024-01-06T04:37:12;23.70;;;20.10;;
22826;SDS011;11580;52.562;13.418;2024-01-06T04:39:41;24.23;;;19.90;;
22826;SDS011;11580;52.562;13.418;2024-01-06T04:42:08;29.40;;;21.63;;
22826;SDS011;11580;52.562;13.418;2024-01-06T04:44:35;26.60;;;20.20;;
22826;SDS011;11580;52.562;13.418;2024-01-06T04:47:03;28.93;;;21.80;;
22826;SDS011;11580;52.562;13.418;2024-01-06T04:49:30;24.03;;;19.50;;
22826;SDS011;11580;52.562;13.418;2024-01-06T04:51:57;31.47;;;22.00;;
22826;SDS011;11580;52.562;13.418;2024-01-06T04:54:24;30.77;;;22.53;;
22826;SDS011;11580;52.562;13.418;2024-01-06T04:56:53;27.57;;;22.57;;
22826;SDS011;11580;52.562;13.418;2024-01-06T04:59:21;24.63;;;18.40;;
22826;SDS011;11580;52.562;13.418;2024-01-06T05:01:48;26.90;;;22.33;;
22826;SDS011;11580;52.562;13.418;2024-01-06T05:04:16;25.80;;;21.73;;
22826;SDS011;11580;52.562;13.418;2024-01-06T05:06:42;29.60;;;23.90;;
22826;SDS011;11580;52.562;13.418;2024-01-06T05:09:10;29.37;;;21.97;;
22826;SDS011;11580;52.562;13.418;2024-01-06T05:11:37;25.37;;;20.53;;
22826;SDS011;11580;52.562;13.418;2024-01-06T05:14:05;28.37;;;21.87;;
22826;SDS011;11580;52.562;13.418;2024-01-06T05:16:33;25.03;;;20.93;;
22826;SDS011;11580;52.562;13.418;2024-01-06T05:19:00;29.10;;;21.27;;
22826;SDS011;11580;52.562;13.418;2024-01-06T05:21:27;31.60;;;22.37;;
22826;SDS011;11580;52.562;13.418;2024-01-06T05:23:54;31.50;;;22.63;;
22826;SDS011;11580;52.562;13.418;2024-01-06T05:26:22;29.63;;;21.80;;
22826;SDS011;11580;52.562;13.418;2024-01-06T05:28:49;29.07;;;21.60;;
22826;SDS011;11580;52.562;13.418;2024-01-06T05:31:18;31.63;;;22.90;;
22826;SDS011;11580;52.562;13.418;2024-01-06T05:33:45;28.07;;;21.50;;
22826;SDS011;11580;52.562;13.418;2024-01-06T05:36:12;29.23;;;21.60;;
22826;SDS011;11580;52.562;13.418;2024-01-06T05:38:39;32.03;;;23.10;;
22826;SDS011;11580;52.562;13.418;2024-01-06T05:41:06;31.70;;;22.80;;
22826;SDS011;11580;52.562;13.418;2024-01-06T05:43:34;31.43;;;23.17;;
22826;SDS011;11580;52.562;13.418;2024-01-06T05:46:01;34.80;;;25.23;;
22826;SDS011;11580;52.562;13.418;2024-01-06T05:48:30;29.70;;;22.73;;
22826;SDS011;11580;52.562;13.418;2024-01-06T05:50:57;27.30;;;21.93;;
22826;SDS011;11580;52.562;13.418;2024-01-06T05:53:24;28.73;;;21.57;;
22826;SDS011;11580;52.562;13.418;2024-01-06T05:55:52;31.27;;;22.40;;
22826;SDS011;11580;52.562;13.418;2024-01-06T05:58:19;27.90;;;20.17;;
22826;SDS011;11580;52.562;13.418;2024-01-06T06:00:47;28.63;;;20.63;;
22826;SDS011;11580;52.562;13.418;2024-01-06T06:03:14;32.17;;;22.17;;
22826;SDS011;11580;52.562;13.418;2024-01-06T06:05:43;30.20;;;22.03;;
22826;SDS011;11580;52.562;13.418;2024-01-06T06:08:10;31.63;;;23.50;;
22826;SDS011;11580;52.562;13.418;2024-01-06T06:10:37;27.77;;;20.53;;
22826;SDS011;11580;52.562;13.418;2024-01-06T06:13:17;26.17;;;20.63;;
22826;SDS011;11580;52.562;13.418;2024-01-06T06:15:44;31.13;;;21.10;;
22826;SDS011;11580;52.562;13.418;2024-01-06T06:18:11;32.87;;;21.20;;
22826;SDS011;11580;52.562;13.418;2024-01-06T06:20:39;27.97;;;21.20;;
22826;SDS011;11580;52.562;13.418;2024-01-06T06:23:08;29.43;;;21.10;;
22826;SDS011;11580;52.562;13.418;2024-01-06T06:25:36;28.10;;;21.80;;
22826;SDS011;11580;52.562;13.418;2024-01-06T06:28:04;28.53;;;20.10;;
22826;SDS011;11580;52.562;13.418;2024-01-06T06:30:32;29.70;;;21.13;;
22826;SDS011;11580;52.562;13.418;2024-01-06T06:32:59;29.70;;;20.57;;
22826;SDS011;11580;52.562;13.418;2024-01-06T06:35:26;25.63;;;19.90;;
22826;SDS011;11580;52.562;13.418;2024-01-06T06:37:54;32.77;;;22.47;;
22826;SDS011;11580;52.562;13.418;2024-01-06T06:40:23;25.63;;;19.73;;
22826;SDS011;11580;52.562;13.418;2024-01-06T06:42:50;32.97;;;23.10;;
22826;SDS011;11580;52.562;13.418;2024-01-06T06:45:17;27.77;;;23.60;;
22826;SDS011;11580;52.562;13.418;2024-01-06T06:47:47;33.67;;;22.10;;
22826;SDS011;11580;52.562;13.418;2024-01-06T06:50:15;31.87;;;20.63;;
22826;SDS011;11580;52.562;13.418;2024-01-06T06:52:42;33.93;;;22.90;;
22826;SDS011;11580;52.562;13.418;2024-01-06T06:55:10;29.10;;;20.77;;
22826;SDS011;11580;52.562;13.418;2024-01-06T06:57:39;30.93;;;22.30;;
22826;SDS011;11580;52.562;13.418;2024-01-06T07:00:07;34.77;;;22.93;;
22826;SDS011;11580;52.562;13.418;2024-01-06T07:02:34;38.73;;;23.10;;
22826;SDS011;11580;52.562;13.418;2024-01-06T07:05:02;30.53;;;21.60;;
22826;SDS011;11580;52.562;13.418;2024-01-06T07:07:32;33.00;;;23.03;;
22826;SDS011;11580;52.562;13.418;2024-01-06T07:10:00;31.87;;;21.10;;
22826;SDS011;11580;52.562;13.418;2024-01-06T07:12:28;33.33;;;24.30;;
22826;SDS011;11580;52.562;13.418;2024-01-06T07:14:57;35.90;;;22.00;;
22826;SDS011;11580;52.562;13.418;2024-01-06T07:17:24;30.23;;;22.87;;
22826;SDS011;11580;52.562;13.418;2024-01-06T07:19:51;35.97;;;21.57;;
22826;SDS011;11580;52.562;13.418;2024-01-06T07:22:19;33.30;;;22.73;;
22826;SDS011;11580;52.562;13.418;2024-01-06T07:24:46;33.70;;;21.80;;
22826;SDS011;11580;52.562;13.418;2024-01-06T07:27:13;36.30;;;21.50;;
22826;SDS011;11580;52.562;13.418;2024-01-06T07:29:41;29.20;;;22.57;;
22826;SDS011;11580;52.562;13.418;2024-01-06T07:32:09;36.97;;;23.70;;
22826;SDS011;11580;52.562;13.418;2024-01-06T07:34:37;34.43;;;22.43;;
22826;SDS011;11580;52.562;13.418;2024-01-06T07:37:04;34.50;;;24.30;;
22826;SDS011;11580;52.562;13.418;2024-01-06T07:39:31;35.03;;;23.97;;
22826;SDS011;11580;52.562;13.418;2024-01-06T07:41:58;34.83;;;22.80;;
22826;SDS011;11580;52.562;13.418;2024-01-06T07:44:26;31.87;;;20.97;;
22826;SDS011;11580;52.562;13.418;2024-01-06T07:46:53;33.37;;;23.43;;
22826;SDS011;11580;52.562;13.418;2024-01-06T07:49:21;34.60;;;22.97;;
22826;SDS011;11580;52.562;13.418;2024-01-06T07:51:49;36.53;;;23.10;;
22826;SDS011;11580;52.562;13.418;2024-01-06T07:54:16;34.50;;;23.70;;
22826;SDS011;11580;52.562;13.418;2024-01-06T07:56:43;33.90;;;23.03;;
22826;SDS011;11580;52.562;13.418;2024-01-06T07:59:10;33.00;;;23.80;;
22826;SDS011;11580;52.562;13.418;2024-01-06T08:01:38;34.50;;;22.07;;
22826;SDS011;11580;52.562;13.418;2024-01-06T08:04:08;34.53;;;23.37;;
22826;SDS011;11580;52.562;13.418;2024-01-06T08:06:36;35.83;;;23.40;;
22826;SDS011;11580;52.562;13.418;2024-01-06T08:09:03;28.33;;;20.50;;
22826;SDS011;11580;52.562;13.418;2024-01-06T08:11:31;35.83;;;23.20;;
22826;SDS011;11580;52.562;13.418;2024-01-06T08:13:58;30.90;;;21.20;;
22826;SDS011;11580;52.562;13.418;2024-01-06T08:16:25;34.20;;;22.50;;
22826;SDS011;11580;52.562;13.418;2024-01-06T08:18:52;33.30;;;22.30;;
22826;SDS011;11580;52.562;13.418;2024-01-06T08:21:19;30.00;;;21.80;;
22826;SDS011;11580;52.562;13.418;2024-01-06T08:23:48;31.83;;;21.73;;
22826;SDS011;11580;52.562;13.418;2024-01-06T08:26:16;29.70;;;22.30;;
22826;SDS011;11580;52.562;13.418;2024-01-06T08:28:44;29.60;;;22.30;;
22826;SDS011;11580;52.562;13.418;2024-01-06T08:31:11;33.27;;;23.30;;
22826;SDS011;11580;52.562;13.418;2024-01-06T08:33:38;28.20;;;22.00;;
22826;SDS011;11580;52.562;13.418;2024-01-06T08:36:05;34.47;;;22.80;;
22826;SDS011;11580;52.562;13.418;2024-01-06T08:38:33;31.80;;;22.90;;
22826;SDS011;11580;52.562;13.418;2024-01-06T08:41:02;34.67;;;22.37;;
22826;SDS011;11580;52.562;13.418;2024-01-06T08:43:30;36.60;;;25.10;;
22826;SDS011;11580;52.562;13.418;2024-01-06T08:45:57;33.90;;;23.60;;
22826;SDS011;11580;52.562;13.418;2024-01-06T08:48:25;36.70;;;23.33;;
22826;SDS011;11580;52.562;13.418;2024-01-06T08:50:52;34.33;;;24.17;;
22826;SDS011;11580;52.562;13.418;2024-01-06T08:53:19;32.67;;;23.60;;
22826;SDS011;11580;52.562;13.418;2024-01-06T08:55:47;30.90;;;22.40;;
22826;SDS011;11580;52.562;13.418;2024-01-06T08:58:15;34.13;;;24.80;;
22826;SDS011;11580;52.562;13.418;2024-01-06T09:00:42;37.57;;;24.03;;
22826;SDS011;11580;52.562;13.418;2024-01-06T09:03:10;36.70;;;24.47;;
22826;SDS011;11580;52.562;13.418;2024-01-06T09:05:37;33.80;;;22.93;;
22826;SDS011;11580;52.562;13.418;2024-01-06T09:08:05;35.57;;;25.40;;
22826;SDS011;11580;52.562;13.418;2024-01-06T09:10:32;32.57;;;24.30;;
22826;SDS011;11580;52.562;13.418;2024-01-06T09:13:00;34.23;;;23.80;;
22826;SDS011;11580;52.562;13.418;2024-01-06T09:15:29;29.37;;;23.53;;
22826;SDS011;11580;52.562;13.418;2024-01-06T09:17:57;33.93;;;24.80;;
22826;SDS011;11580;52.562;13.418;2024-01-06T09:20:24;36.30;;;24.00;;
22826;SDS011;11580;52.562;13.418;2024-01-06T09:22:52;36.13;;;25.17;;
22826;SDS011;11580;52.562;13.418;2024-01-06T09:25:19;36.17;;;26.00;;
22826;SDS011;11580;52.562;13.418;2024-01-06T09:27:49;31.60;;;22.13;;
22826;SDS011;11580;52.562;13.418;2024-01-06T09:30:18;37.50;;;24.43;;
22826;SDS011;11580;52.562;13.418;2024-01-06T09:32:46;37.20;;;25.40;;
22826;SDS011;11580;52.562;13.418;2024-01-06T09:35:14;40.47;;;25.83;;
22826;SDS011;11580;52.562;13.418;2024-01-06T09:37:41;28.40;;;21.17;;
22826;SDS011;11580;52.562;13.418;2024-01-06T09:40:10;36.53;;;24.43;;
22826;SDS011;11580;52.562;13.418;2024-01-06T09:42:39;33.77;;;25.17;;
22826;SDS011;11580;52.562;13.418;2024-01-06T09:45:07;35.73;;;26.50;;
22826;SDS011;11580;52.562;13.418;2024-01-06T09:47:35;32.10;;;23.57;;
22826;SDS011;11580;52.562;13.418;2024-01-06T09:50:04;34.77;;;25.30;;
22826;SDS011;11580;52.562;13.418;2024-01-06T09:52:37;33.00;;;24.70;;
22826;SDS011;11580;52.562;13.418;2024-01-06T09:55:09;35.17;;;24.80;;
22826;SDS011;11580;52.562;13.418;2024-01-06T09:57:38;32.93;;;24.73;;
22826;SDS011;11580;52.562;13.418;2024-01-06T10:00:06;38.20;;;24.47;;
22826;SDS011;11580;52.562;13.418;2024-01-06T10:02:37;31.53;;;23.47;;
22826;SDS011;11580;52.562;13.418;2024-01-06T10:05:07;36.90;;;25.23;;
22826;SDS011;11580;52.562;13.418;2024-01-06T10:07:37;28.50;;;23.07;;
22826;SDS011;11580;52.562;13.418;2024-01-06T10:10:05;31.73;;;23.77;;
22826;SDS011;11580;52.562;13.418;2024-01-06T10:12:36;33.23;;;24.77;;
22826;SDS011;11580;52.562;13.418;2024-01-06T10:15:04;34.53;;;24.60;;
22826;SDS011;11580;52.562;13.418;2024-01-06T10:17:33;33.33;;;24.40;;
22826;SDS011;11580;52.562;13.418;2024-01-06T10:20:07;34.70;;;24.60;;
22826;SDS011;11580;52.562;13.418;2024-01-06T10:22:36;25.83;;;20.63;;
22826;SDS011;11580;52.562;13.418;2024-01-06T10:27:33;31.13;;;22.40;;
22826;SDS011;11580;52.562;13.418;2024-01-06T10:30:02;27.30;;;21.53;;
22826;SDS011;11580;52.562;13.418;2024-01-06T10:32:31;25.70;;;21.13;;
22826;SDS011;11580;52.562;13.418;2024-01-06T10:34:58;37.10;;;24.23;;
22826;SDS011;11580;52.562;13.418;2024-01-06T10:37:29;26.00;;;23.20;;
22826;SDS011;11580;52.562;13.418;2024-01-06T10:40:06;35.10;;;22.87;;
22826;SDS011;11580;52.562;13.418;2024-01-06T10:42:36;31.57;;;23.03;;
22826;SDS011;11580;52.562;13.418;2024-01-06T10:45:05;26.50;;;21.90;;
22826;SDS011;11580;52.562;13.418;2024-01-06T10:47:35;32.37;;;23.97;;
22826;SDS011;11580;52.562;13.418;2024-01-06T10:50:03;28.13;;;21.63;;
22826;SDS011;11580;52.562;13.418;2024-01-06T10:52:34;32.30;;;22.70;;
22826;SDS011;11580;52.562;13.418;2024-01-06T10:55:04;30.60;;;22.87;;
22826;SDS011;11580;52.562;13.418;2024-01-06T10:57:32;26.87;;;21.80;;
22826;SDS011;11580;52.562;13.418;2024-01-06T11:00:03;30.27;;;23.43;;
22826;SDS011;11580;52.562;13.418;2024-01-06T11:02:31;26.67;;;21.27;;
22826;SDS011;11580;52.562;13.418;2024-01-06T11:05:00;24.53;;;21.23;;
22826;SDS011;11580;52.562;13.418;2024-01-06T11:07:28;34.57;;;24.57;;
22826;SDS011;11580;52.562;13.418;2024-01-06T11:09:58;29.30;;;22.00;;
22826;SDS011;11580;52.562;13.418;2024-01-06T11:12:30;29.47;;;23.60;;
22826;SDS011;11580;52.562;13.418;2024-01-06T11:14:58;27.50;;;21.33;;
22826;SDS011;11580;52.562;13.418;2024-01-06T11:20:20;28.73;;;22.37;;
22826;SDS011;11580;52.562;13.418;2024-01-06T11:22:49;30.83;;;22.40;;
22826;SDS011;11580;52.562;13.418;2024-01-06T11:25:19;29.57;;;21.90;;
22826;SDS011;11580;52.562;13.418;2024-01-06T11:27:48;27.03;;;22.90;;
22826;SDS011;11580;52.562;13.418;2024-01-06T11:30:22;27.77;;;21.50;;
22826;SDS011;11580;52.562;13.418;2024-01-06T11:32:51;26.10;;;20.43;;
22826;SDS011;11580;52.562;13.418;2024-01-06T11:35:25;30.07;;;20.50;;
22826;SDS011;11580;52.562;13.418;2024-01-06T11:37:54;30.97;;;23.87;;
22826;SDS011;11580;52.562;13.418;2024-01-06T11:40:25;29.90;;;22.93;;
22826;SDS011;11580;52.562;13.418;2024-01-06T11:42:59;28.93;;;22.20;;
22826;SDS011;11580;52.562;13.418;2024-01-06T11:45:29;28.97;;;22.07;;
22826;SDS011;11580;52.562;13.418;2024-01-06T11:47:58;29.50;;;22.00;;
22826;SDS011;11580;52.562;13.418;2024-01-06T11:50:27;29.37;;;22.70;;
22826;SDS011;11580;52.562;13.418;2024-01-06T11:52:55;29.73;;;22.97;;
22826;SDS011;11580;52.562;13.418;2024-01-06T11:55:26;33.13;;;23.70;;
22826;SDS011;11580;52.562;13.418;2024-01-06T11:57:54;30.10;;;22.90;;
22826;SDS011;11580;52.562;13.418;2024-01-06T12:00:22;31.47;;;23.67;;
22826;SDS011;11580;52.562;13.418;2024-01-06T12:02:55;28.10;;;21.00;;
22826;SDS011;11580;52.562;13.418;2024-01-06T12:05:23;30.40;;;23.93;;
22826;SDS011;11580;52.562;13.418;2024-01-06T12:07:55;28.43;;;21.63;;
22826;SDS011;11580;52.562;13.418;2024-01-06T12:10:26;32.33;;;22.60;;
22826;SDS011;11580;52.562;13.418;2024-01-06T12:12:55;33.90;;;23.07;;
22826;SDS011;11580;52.562;13.418;2024-01-06T12:15:27;30.00;;;21.40;;
22826;SDS011;11580;52.562;13.418;2024-01-06T12:17:56;28.90;;;22.40;;
22826;SDS011;11580;52.562;13.418;2024-01-06T12:20:25;30.93;;;24.47;;
22826;SDS011;11580;52.562;13.418;2024-01-06T12:22:54;26.57;;;20.47;;
22826;SDS011;11580;52.562;13.418;2024-01-06T12:25:21;24.87;;;19.70;;
22826;SDS011;11580;52.562;13.418;2024-01-06T12:27:52;26.77;;;21.13;;
22826;SDS011;11580;52.562;13.418;2024-01-06T12:30:19;24.93;;;20.33;;
22826;SDS011;11580;52.562;13.418;2024-01-06T12:32:50;30.67;;;21.80;;
22826;SDS011;11580;52.562;13.418;2024-01-06T12:35:18;26.70;;;21.97;;
22826;SDS011;11580;52.562;13.418;2024-01-06T12:37:47;24.83;;;21.17;;
22826;SDS011;11580;52.562;13.418;2024-01-06T12:40:15;27.20;;;21.80;;
22826;SDS011;11580;52.562;13.418;2024-01-06T12:42:45;28.90;;;22.50;;
22826;SDS011;11580;52.562;13.418;2024-01-06T12:45:13;30.13;;;21.90;;
22826;SDS011;11580;52.562;13.418;2024-01-06T12:47:41;30.10;;;24.23;;
22826;SDS011;11580;52.562;13.418;2024-01-06T12:50:09;29.20;;;25.27;;
22826;SDS011;11580;52.562;13.418;2024-01-06T12:52:36;31.10;;;24.77;;
22826;SDS011;11580;52.562;13.418;2024-01-06T12:55:04;26.43;;;21.30;;
22826;SDS011;11580;52.562;13.418;2024-01-06T12:57:32;32.20;;;23.07;;
22826;SDS011;11580;52.562;13.418;2024-01-06T13:00:00;29.00;;;23.80;;
22826;SDS011;11580;52.562;13.418;2024-01-06T13:02:30;30.83;;;23.67;;
22826;SDS011;11580;52.562;13.418;2024-01-06T13:04:57;28.87;;;21.70;;
22826;SDS011;11580;52.562;13.418;2024-01-06T13:07:24;25.47;;;20.37;;
22826;SDS011;11580;52.562;13.418;2024-01-06T13:09:51;27.47;;;21.73;;
22826;SDS011;11580;52.562;13.418;2024-01-06T13:12:19;28.77;;;22.40;;
22826;SDS011;11580;52.562;13.418;2024-01-06T13:14:48;26.37;;;23.37;;
22826;SDS011;11580;52.562;13.418;2024-01-06T13:17:16;28.33;;;22.33;;
22826;SDS011;11580;52.562;13.418;2024-01-06T13:19:44;29.80;;;22.47;;
22826;SDS011;11580;52.562;13.418;2024-01-06T13:22:12;26.30;;;22.70;;
22826;SDS011;11580;52.562;13.418;2024-01-06T13:24:40;28.80;;;22.00;;
22826;SDS011;11580;52.562;13.418;2024-01-06T13:27:07;31.57;;;22.10;;
22826;SDS011;11580;52.562;13.418;2024-01-06T13:29:34;27.83;;;21.17;;
22826;SDS011;11580;52.562;13.418;2024-01-06T13:32:02;22.20;;;19.80;;
22826;SDS011;11580;52.562;13.418;2024-01-06T13:34:30;25.40;;;20.70;;
22826;SDS011;11580;52.562;13.418;2024-01-06T13:36:59;27.73;;;21.20;;
22826;SDS011;11580;52.562;13.418;2024-01-06T13:39:26;23.50;;;20.60;;
22826;SDS011;11580;52.562;13.418;2024-01-06T13:41:53;24.43;;;19.73;;
22826;SDS011;11580;52.562;13.418;2024-01-06T13:44:21;24.57;;;20.80;;
22826;SDS011;11580;52.562;13.418;2024-01-06T13:46:49;26.23;;;20.30;;
22826;SDS011;11580;52.562;13.418;2024-01-06T13:49:16;21.53;;;19.27;;
22826;SDS011;11580;52.562;13.418;2024-01-06T13:51:44;25.47;;;19.50;;
22826;SDS011;11580;52.562;13.418;2024-01-06T13:54:13;21.33;;;18.53;;
22826;SDS011;11580;52.562;13.418;2024-01-06T13:56:40;23.00;;;18.70;;
22826;SDS011;11580;52.562;13.418;2024-01-06T13:59:07;21.30;;;17.27;;
22826;SDS011;11580;52.562;13.418;2024-01-06T14:01:34;26.10;;;18.70;;
22826;SDS011;11580;52.562;13.418;2024-01-06T14:04:02;25.87;;;19.80;;
22826;SDS011;11580;52.562;13.418;2024-01-06T14:06:30;21.90;;;18.50;;
22826;SDS011;11580;52.562;13.418;2024-01-06T14:08:59;20.60;;;17.10;;
22826;SDS011;11580;52.562;13.418;2024-01-06T14:11:28;21.37;;;17.10;;
22826;SDS011;11580;52.562;13.418;2024-01-06T14:13:56;19.20;;;17.00;;
22826;SDS011;11580;52.562;13.418;2024-01-06T14:16:24;20.43;;;18.17;;
22826;SDS011;11580;52.562;13.418;2024-01-06T14:18:51;21.43;;;17.60;;